Terminal Aerodrome Forecast
Issued by NWS

Home | Current Version | Previous Version | Text Only | Print | Product List | Glossary On
Versions: 1 2 3 4 5 6 7 8 9 10 11 12 13 14
000
FTUS46 KHNX 012320
TAFBFL
TAF
KBFL 012320Z 0200/0224 35009KT P6SM VCSH SCT030 BKN060
     FM020600 VRB04KT P6SM BKN050 OVC100
     FM022100 31010KT P6SM BKN250=

USA.gov is the U.S. government's official web portal to all federal, state and local government web resources and services.